Time;durP1;ratioP1;P1;durP2;ratioP2;P2;SDS_P1;SDS_P2;PMS_P1;PMS_P2;Temp;Humidity;BMP_temperature;BMP_pressure;BME280_temperature;BME280_humidity;BME280_pressure;Samples;Min_cycle;Max_cycle;Signal;HPM_P1;HPM_P2
2021/04/13 00:01:32;;;;;;;4.17;2.77;;;;;;;2.73;71.16;97793.41;4974030;28;20191;-62
2021/04/13 00:04:03;;;;;;;3.33;3.00;;;;;;;2.62;71.60;97796.25;4974919;28;20272;-62
2021/04/13 00:06:36;;;;;;;3.83;2.93;;;;;;;2.43;72.52;97792.06;4973973;28;20192;-62
2021/04/13 00:09:21;;;;;;;4.07;3.30;;;;;;;2.55;72.68;97790.88;4967139;28;20304;-63
2021/04/13 00:11:51;;;;;;;4.67;3.53;;;;;;;2.50;72.90;97791.34;4956910;28;20188;-62
2021/04/13 00:14:24;;;;;;;4.43;3.70;;;;;;;2.47;73.43;97795.97;4974770;28;20184;-62
2021/04/13 00:16:52;;;;;;;5.47;4.00;;;;;;;2.40;74.25;97787.19;4974629;28;20187;-62
2021/04/13 00:19:21;;;;;;;4.77;3.63;;;;;;;2.37;74.17;97795.25;4974590;28;20192;-63
2021/04/13 00:21:47;;;;;;;4.53;3.97;;;;;;;2.32;75.20;97793.13;4973753;28;20197;-62
2021/04/13 00:24:20;;;;;;;7.77;4.40;;;;;;;2.11;76.23;97790.03;4974483;28;20188;-62
2021/04/13 00:26:52;;;;;;;5.80;4.23;;;;;;;2.06;76.58;97794.84;4973730;28;20177;-62
2021/04/13 00:29:25;;;;;;;7.53;4.43;;;;;;;2.10;76.65;97791.00;4974674;28;20216;-62
2021/04/13 00:31:55;;;;;;;6.27;4.17;;;;;;;1.94;76.99;97788.28;4973590;28;20183;-62
2021/04/13 00:34:24;;;;;;;4.60;4.17;;;;;;;1.84;78.31;97790.91;4974293;28;20199;-67
2021/04/13 00:37:08;;;;;;;4.17;3.80;;;;;;;1.89;78.81;97783.56;4974693;28;20258;-62
2021/04/13 00:39:34;;;;;;;7.43;4.20;;;;;;;1.83;78.57;97784.13;4973590;28;20206;-64
2021/04/13 00:42:02;;;;;;;4.60;3.83;;;;;;;1.74;79.70;97782.41;4974144;28;20185;-63
2021/04/13 00:44:32;;;;;;;4.03;3.70;;;;;;;1.85;79.59;97786.56;4940231;28;20185;-63
2021/04/13 00:47:08;;;;;;;5.20;4.23;;;;;;;1.87;79.29;97790.63;4974056;28;20219;-62
2021/04/13 00:49:41;;;;;;;3.97;3.50;;;;;;;1.93;78.96;97792.63;4972827;28;20208;-62
2021/04/13 00:52:18;;;;;;;4.40;3.50;;;;;;;1.95;78.47;97789.91;4958660;28;20212;-62
2021/04/13 00:54:48;;;;;;;3.67;3.30;;;;;;;1.95;79.16;97792.50;4973484;28;20356;-62
2021/04/13 00:57:25;;;;;;;3.37;3.07;;;;;;;1.97;78.57;97787.97;4956984;28;20216;-62
2021/04/13 00:59:51;;;;;;;4.63;3.20;;;;;;;2.07;78.34;97793.88;4973488;28;20180;-63
2021/04/13 01:02:27;;;;;;;3.87;3.53;;;;;;;1.88;78.86;97789.69;4973425;28;20217;-62
2021/04/13 01:04:52;;;;;;;5.13;3.10;;;;;;;2.06;77.83;97797.44;4956596;28;20215;-62
2021/04/13 01:07:50;;;;;;;3.40;3.20;;;;;;;2.13;77.39;97795.03;4974060;28;20173;-62
2021/04/13 01:10:18;;;;;;;3.23;2.93;;;;;;;2.02;77.51;97798.66;4958092;28;20288;-64
2021/04/13 01:12:52;;;;;;;6.10;3.60;;;;;;;2.17;77.26;97802.38;4972445;28;20185;-62
2021/04/13 01:15:20;;;;;;;5.53;4.47;;;;;;;2.11;77.30;97799.56;4973864;28;20177;-62
2021/04/13 01:17:46;;;;;;;5.80;4.60;;;;;;;2.07;77.65;97807.59;4972606;28;20220;-61
2021/04/13 01:20:46;;;;;;;6.33;5.30;;;;;;;2.26;76.20;97798.91;4973143;28;20193;-62
2021/04/13 01:23:22;;;;;;;5.27;4.77;;;;;;;2.13;77.42;97803.63;4962745;28;20216;-62
2021/04/13 01:25:56;;;;;;;7.30;5.90;;;;;;;2.18;77.42;97800.59;4956983;28;20180;-62
2021/04/13 01:28:26;;;;;;;9.63;6.47;;;;;;;2.22;77.04;97801.94;4973377;28;20563;-65
2021/04/13 01:31:06;;;;;;;8.80;7.50;;;;;;;2.08;77.74;97798.91;4973167;28;20216;-63
2021/04/13 01:33:52;;;;;;;11.13;8.07;;;;;;;2.15;76.57;97796.53;4972135;28;20185;-62
2021/04/13 01:36:17;;;;;;;8.73;7.33;;;;;;;2.02;78.10;97796.91;4959836;28;20653;-62
2021/04/13 01:39:00;;;;;;;10.67;7.90;;;;;;;1.98;78.02;97793.00;4954910;28;20185;-62
2021/04/13 01:41:43;;;;;;;10.00;8.83;;;;;;;1.87;78.58;97792.41;4955064;28;20220;-67
2021/04/13 01:44:10;;;;;;;10.67;8.83;;;;;;;1.88;78.78;97796.63;4958649;28;20231;-62
2021/04/13 01:46:35;;;;;;;14.13;10.33;;;;;;;1.98;78.79;97798.16;4972128;28;20540;-64
2021/04/13 01:49:01;;;;;;;13.17;10.23;;;;;;;1.77;79.22;97796.81;4972445;28;20220;-63
2021/04/13 01:51:33;;;;;;;15.43;10.73;;;;;;;1.91;79.08;97794.53;4971663;28;20279;-67
2021/04/13 01:53:58;;;;;;;14.27;11.03;;;;;;;1.83;78.52;97793.66;4955038;28;20244;-63
2021/04/13 01:56:58;;;;;;;17.97;12.40;;;;;;;1.95;78.89;97793.28;4955306;28;20617;-67
2021/04/13 01:59:36;;;;;;;17.03;12.53;;;;;;;1.88;78.47;97794.84;4972358;28;20686;-67
2021/04/13 02:02:11;;;;;;;14.50;12.13;;;;;;;1.74;79.24;97789.34;4955452;28;20684;-62
2021/04/13 02:04:46;;;;;;;17.00;12.27;;;;;;;1.71;79.94;97807.75;4972185;28;20227;-64
2021/04/13 02:08:04;;;;;;;17.63;12.93;;;;;;;1.57;80.30;97801.28;4972788;28;20195;-63
2021/04/13 02:10:39;;;;;;;15.40;13.13;;;;;;;1.60;80.33;97795.84;4938748;28;20198;-63
2021/04/13 02:13:22;;;;;;;18.07;14.23;;;;;;;1.70;80.38;97808.69;4972090;28;20187;-64
2021/04/13 02:15:52;;;;;;;17.93;14.13;;;;;;;1.63;80.24;97809.28;4971895;28;20184;-63
2021/04/13 02:18:23;;;;;;;18.93;14.23;;;;;;;1.71;80.47;97807.75;4972958;28;20257;-64
2021/04/13 02:20:52;;;;;;;18.90;14.83;;;;;;;1.55;81.31;97814.38;4972000;28;20181;-66
2021/04/13 02:23:24;;;;;;;19.60;14.27;;;;;;;1.51;81.66;97817.38;4955372;28;20196;-64
2021/04/13 02:25:50;;;;;;;21.60;15.10;;;;;;;1.60;80.63;97812.16;4971974;28;20197;-63
2021/04/13 02:28:18;;;;;;;18.80;14.10;;;;;;;1.51;81.07;97818.19;4972553;28;20208;-63
2021/04/13 02:30:46;;;;;;;19.33;14.00;;;;;;;1.58;80.97;97819.25;4954471;28;20653;-63
2021/04/13 02:33:18;;;;;;;16.83;13.37;;;;;;;1.41;82.29;97814.03;4972730;28;20204;-62
2021/04/13 02:35:44;;;;;;;15.50;12.10;;;;;;;1.28;82.59;97810.97;4971322;28;20229;-63
2021/04/13 02:38:27;;;;;;;16.63;12.30;;;;;;;1.31;82.91;97813.25;4972112;28;20276;-63
2021/04/13 02:41:06;;;;;;;15.03;11.70;;;;;;;1.27;82.50;97817.09;4971923;28;20184;-63
2021/04/13 02:43:39;;;;;;;15.27;12.30;;;;;;;1.21;83.43;97814.13;4971127;28;20182;-63
2021/04/13 02:46:12;;;;;;;12.70;10.97;;;;;;;1.25;83.57;97814.66;4972113;28;20177;-63
2021/04/13 02:48:43;;;;;;;16.27;11.77;;;;;;;1.29;82.67;97805.66;4953760;28;20200;-63
2021/04/13 02:51:12;;;;;;;14.90;10.70;;;;;;;1.25;82.47;97818.03;4972134;28;20180;-62
2021/04/13 02:53:43;;;;;;;15.53;11.53;;;;;;;1.31;83.36;97814.09;4970722;28;20220;-62
2021/04/13 02:56:16;;;;;;;14.07;11.40;;;;;;;1.30;83.36;97817.63;4972703;28;20207;-62
2021/04/13 02:59:00;;;;;;;16.43;11.27;;;;;;;1.36;83.22;97821.41;4970910;28;20239;-65
2021/04/13 03:01:25;;;;;;;13.60;10.67;;;;;;;1.29;83.47;97822.91;4971819;28;20188;-66
2021/04/13 03:03:54;;;;;;;15.23;10.63;;;;;;;1.31;83.70;97824.41;4971524;28;20197;-62
2021/04/13 03:06:21;;;;;;;13.23;10.43;;;;;;;1.42;82.93;97826.81;4972112;28;20173;-62
2021/04/13 03:08:47;;;;;;;13.20;9.97;;;;;;;1.37;83.24;97831.59;4970791;28;20393;-63
2021/04/13 03:11:12;;;;;;;12.33;8.93;;;;;;;1.29;83.17;97831.47;4971806;28;20638;-63
2021/04/13 03:13:41;;;;;;;12.20;8.13;;;;;;;1.34;82.76;97823.31;4971293;28;20188;-62
2021/04/13 03:16:07;;;;;;;8.40;7.27;;;;;;;1.51;81.78;97830.28;4972053;28;20215;-63
2021/04/13 03:18:42;;;;;;;9.13;6.90;;;;;;;1.57;81.87;97833.09;4970956;28;20681;-63
2021/04/13 03:21:48;;;;;;;8.17;6.43;;;;;;;1.55;81.81;97831.63;4957461;28;20180;-62
2021/04/13 03:24:18;;;;;;;7.60;6.30;;;;;;;1.23;83.43;97827.69;4888773;29;20199;-62
2021/04/13 03:26:48;;;;;;;8.87;6.90;;;;;;;1.26;83.22;97836.94;4963264;28;20219;-62
2021/04/13 03:29:21;;;;;;;7.23;5.97;;;;;;;1.30;84.21;97835.69;4975170;28;20622;-62
2021/04/13 03:31:47;;;;;;;7.77;6.20;;;;;;;1.37;83.32;97836.75;4974826;28;20204;-63
2021/04/13 03:34:16;;;;;;;7.33;6.27;;;;;;;1.39;83.48;97828.88;4974598;28;20212;-63
2021/04/13 03:36:42;;;;;;;7.60;6.40;;;;;;;1.35;83.47;97830.09;4974247;28;20192;-62
2021/04/13 03:39:13;;;;;;;6.83;5.40;;;;;;;1.30;83.02;97827.13;4975191;28;20271;-62
2021/04/13 03:41:45;;;;;;;7.63;6.03;;;;;;;1.22;83.49;97820.94;4974482;28;20173;-64
2021/04/13 03:44:14;;;;;;;10.33;6.27;;;;;;;1.35;82.75;97819.75;4957514;28;20243;-63
2021/04/13 03:46:40;;;;;;;8.13;6.37;;;;;;;1.28;83.54;97819.53;4946243;28;20192;-62
2021/04/13 03:49:17;;;;;;;7.73;6.17;;;;;;;1.10;84.94;97819.47;4975082;28;20223;-62
2021/04/13 03:51:59;;;;;;;6.90;6.00;;;;;;;1.15;85.05;97825.03;4973843;28;20244;-63
2021/04/13 03:54:29;;;;;;;10.57;6.87;;;;;;;1.19;84.58;97823.78;4974835;28;20220;-62
2021/04/13 03:56:56;;;;;;;8.50;6.53;;;;;;;1.20;85.60;97816.84;4974572;28;20184;-62
2021/04/13 03:59:24;;;;;;;7.97;6.70;;;;;;;0.87;87.83;97822.53;4974947;28;20581;-62
2021/04/13 04:01:51;;;;;;;12.10;7.17;;;;;;;0.82;88.09;97830.69;4973543;28;20185;-62
2021/04/13 04:04:23;;;;;;;7.43;6.40;;;;;;;0.89;88.00;97825.81;4974692;28;20218;-62
2021/04/13 04:07:05;;;;;;;10.00;6.77;;;;;;;0.86;89.18;97821.72;4973893;28;20208;-62
2021/04/13 04:09:31;;;;;;;8.50;6.67;;;;;;;0.60;90.93;97831.84;4974327;28;20263;-67
2021/04/13 04:11:59;;;;;;;14.80;8.20;;;;;;;0.63;90.88;97834.13;4973898;28;20220;-62
2021/04/13 04:14:30;;;;;;;10.27;7.90;;;;;;;0.61;92.01;97832.66;4957492;28;20185;-62
2021/04/13 04:17:06;;;;;;;13.17;7.67;;;;;;;0.46;93.15;97839.97;4957303;28;20173;-61
2021/04/13 04:19:32;;;;;;;8.57;6.83;;;;;;;0.51;92.83;97839.56;4974162;28;20644;-66
2021/04/13 04:21:58;;;;;;;11.67;8.27;;;;;;;0.49;93.11;97844.06;4974634;28;20189;-61
2021/04/13 04:24:36;;;;;;;8.93;7.27;;;;;;;0.59;92.15;97845.69;4974904;28;20235;-61
2021/04/13 04:27:37;;;;;;;8.57;7.33;;;;;;;0.67;90.87;97838.03;4974608;28;20256;-64
2021/04/13 04:30:35;;;;;;;7.50;6.80;;;;;;;0.64;90.01;97845.25;4956973;28;20204;-62
2021/04/13 04:33:02;;;;;;;7.27;6.50;;;;;;;0.62;89.07;97844.56;4974068;28;20271;-62
2021/04/13 04:35:43;;;;;;;8.80;7.03;;;;;;;0.61;89.21;97850.72;4973332;28;20364;-67
2021/04/13 04:38:27;;;;;;;7.47;6.67;;;;;;;0.58;88.96;97848.38;4972841;28;20185;-62
2021/04/13 04:40:54;;;;;;;7.43;6.20;;;;;;;0.62;89.22;97853.13;4956207;28;20196;-62
2021/04/13 04:44:00;;;;;;;8.20;6.00;;;;;;;0.51;89.68;97858.44;4956836;28;20192;-62
2021/04/13 04:46:39;;;;;;;8.53;6.47;;;;;;;0.59;89.39;97862.91;4963532;28;20486;-61
2021/04/13 04:49:07;;;;;;;7.90;6.43;;;;;;;0.59;89.84;97858.56;4974162;28;20314;-61
2021/04/13 04:51:34;;;;;;;9.13;6.27;;;;;;;0.54;89.40;97862.50;4972800;28;20192;-64
2021/04/13 04:53:59;;;;;;;7.00;5.80;;;;;;;0.50;89.43;97858.59;4973239;28;20291;-62
2021/04/13 04:56:25;;;;;;;7.20;6.50;;;;;;;0.52;88.31;97861.81;4956634;28;20177;-62
2021/04/13 04:58:50;;;;;;;7.50;6.37;;;;;;;0.46;87.96;97864.94;4956001;28;20184;-62
2021/04/13 05:01:16;;;;;;;11.37;7.30;;;;;;;0.39;87.84;97869.88;4974117;28;20638;-62
2021/04/13 05:03:42;;;;;;;8.43;6.97;;;;;;;0.49;87.27;97868.09;4973245;28;20387;-62
2021/04/13 05:06:09;;;;;;;7.83;6.87;;;;;;;0.46;88.01;97867.53;4973558;28;20180;-62
2021/04/13 05:08:35;;;;;;;8.73;6.50;;;;;;;0.40;88.02;97877.44;4973247;28;20208;-63
2021/04/13 05:11:01;;;;;;;8.50;6.80;;;;;;;0.45;87.48;97879.59;4973384;28;20561;-63
2021/04/13 05:13:26;;;;;;;10.90;6.23;;;;;;;0.50;87.22;97876.66;4973764;28;20195;-62
2021/04/13 05:15:52;;;;;;;9.57;6.53;;;;;;;0.46;87.63;97883.81;4973096;28;20189;-63
2021/04/13 05:18:18;;;;;;;8.77;7.43;;;;;;;0.40;87.38;97895.50;4973734;28;20584;-63
2021/04/13 05:20:43;;;;;;;7.63;6.57;;;;;;;0.41;87.65;97888.56;4972636;28;20268;-63
2021/04/13 05:23:09;;;;;;;9.87;7.43;;;;;;;0.56;87.98;97899.31;4956386;28;20197;-63
2021/04/13 05:25:34;;;;;;;9.70;6.93;;;;;;;0.60;88.04;97904.06;4972759;28;20188;-64
2021/04/13 05:28:00;;;;;;;10.40;7.03;;;;;;;0.64;87.92;97902.81;4971658;28;20527;-63
2021/04/13 05:30:25;;;;;;;7.80;6.43;;;;;;;0.84;86.42;97899.25;4956112;28;20189;-62
2021/04/13 05:32:51;;;;;;;8.80;6.73;;;;;;;0.96;85.97;97902.50;4972707;28;20188;-62
2021/04/13 05:35:19;;;;;;;8.70;6.70;;;;;;;1.22;84.94;97910.47;4955719;28;20248;-62
2021/04/13 05:37:44;;;;;;;8.00;6.73;;;;;;;1.12;83.92;97907.09;4972204;28;20242;-62
2021/04/13 05:40:14;;;;;;;8.87;6.63;;;;;;;1.44;82.98;97915.31;4955664;28;20188;-61
2021/04/13 05:42:39;;;;;;;6.83;6.13;;;;;;;1.53;82.50;97911.03;4971821;28;20220;-62
2021/04/13 05:45:06;;;;;;;8.87;6.30;;;;;;;1.49;82.29;97920.84;4972438;28;20223;-60
2021/04/13 05:47:35;;;;;;;8.00;6.80;;;;;;;1.55;81.19;97915.13;4972422;28;20710;-62
2021/04/13 05:50:01;;;;;;;6.27;5.60;;;;;;;1.70;80.93;97919.81;4972693;28;20766;-62
2021/04/13 05:52:26;;;;;;;6.17;5.57;;;;;;;1.84;80.54;97919.34;4972200;28;20277;-60
2021/04/13 05:54:52;;;;;;;6.80;6.07;;;;;;;1.93;80.82;97916.72;4972108;28;20490;-61
2021/04/13 05:57:21;;;;;;;7.73;6.03;;;;;;;2.17;78.74;97918.75;4972831;28;20225;-61
2021/04/13 05:59:52;;;;;;;6.00;5.40;;;;;;;2.43;78.09;97918.84;4971758;28;20193;-61
2021/04/13 06:02:18;;;;;;;7.63;6.00;;;;;;;2.52;76.19;97923.13;4955201;28;20185;-60
2021/04/13 06:04:43;;;;;;;7.27;5.90;;;;;;;2.60;76.95;97919.78;4971590;28;20188;-60
2021/04/13 06:07:09;;;;;;;8.23;6.13;;;;;;;2.69;76.13;97927.47;4954616;28;20653;-61
2021/04/13 06:09:35;;;;;;;7.93;5.90;;;;;;;2.53;76.99;97926.53;4971773;28;20284;-62
2021/04/13 06:12:00;;;;;;;9.63;6.70;;;;;;;2.67;76.47;97931.19;4972798;28;20275;-61
2021/04/13 06:14:28;;;;;;;7.30;6.57;;;;;;;2.59;75.86;97939.69;4972458;28;20191;-60
2021/04/13 06:16:53;;;;;;;8.73;6.50;;;;;;;2.72;74.73;97934.97;4971541;28;20189;-61
2021/04/13 06:19:19;;;;;;;7.13;6.43;;;;;;;2.70;75.76;97936.06;4972613;28;20247;-61
2021/04/13 06:21:45;;;;;;;8.37;6.63;;;;;;;2.74;74.35;97939.97;4972165;28;20192;-62
2021/04/13 06:24:11;;;;;;;8.10;7.07;;;;;;;2.63;75.35;97948.78;4955448;28;20204;-61
2021/04/13 06:26:36;;;;;;;8.67;6.80;;;;;;;2.68;75.35;97943.16;4954306;28;20192;-62
2021/04/13 06:29:03;;;;;;;8.23;7.43;;;;;;;2.77;75.20;97937.09;4954335;28;20259;-61
2021/04/13 06:31:28;;;;;;;8.53;7.47;;;;;;;2.72;74.88;97939.31;4972123;28;20717;-62
2021/04/13 06:33:54;;;;;;;7.50;6.70;;;;;;;2.78;75.04;97943.91;4971215;28;20272;-62
2021/04/13 06:36:23;;;;;;;8.40;6.67;;;;;;;2.64;74.73;97939.22;4954740;28;20220;-61
2021/04/13 06:38:51;;;;;;;10.67;7.53;;;;;;;2.81;74.09;97946.19;4971409;28;20176;-61
2021/04/13 06:41:28;;;;;;;9.83;7.93;;;;;;;2.88;75.03;97949.81;4972226;28;20185;-61
2021/04/13 06:44:03;;;;;;;8.17;7.37;;;;;;;3.15;73.60;97941.91;4970390;28;20290;-61
2021/04/13 06:46:49;;;;;;;8.37;7.33;;;;;;;2.95;74.89;97947.44;4970975;28;20673;-62
2021/04/13 06:49:33;;;;;;;11.07;7.67;;;;;;;2.98;74.56;97957.47;4953220;28;20204;-61
2021/04/13 06:52:34;;;;;;;8.33;7.53;;;;;;;3.00;74.57;97952.97;4970044;28;20195;-62
2021/04/13 06:55:30;;;;;;;11.00;8.03;;;;;;;3.05;74.71;97946.38;4932460;29;20189;-62
2021/04/13 06:58:13;;;;;;;9.67;8.13;;;;;;;2.89;75.33;97943.66;4931939;29;20958;-61
2021/04/13 07:01:05;;;;;;;9.20;8.30;;;;;;;3.11;74.33;97947.56;4935360;29;20185;-61
2021/04/13 07:03:40;;;;;;;8.40;7.60;;;;;;;3.31;72.95;97947.22;4936540;29;20218;-62
2021/04/13 07:06:38;;;;;;;8.50;7.60;;;;;;;3.89;71.55;97948.34;4937078;29;20177;-61
2021/04/13 07:09:28;;;;;;;8.93;7.43;;;;;;;4.00;70.58;97948.06;4884822;29;20229;-61
2021/04/13 07:12:21;;;;;;;8.63;7.60;;;;;;;4.03;70.75;97945.13;4934941;29;20194;-61
2021/04/13 07:14:59;;;;;;;10.57;8.60;;;;;;;3.75;69.57;97960.91;4934944;29;20585;-61
2021/04/13 07:17:30;;;;;;;8.53;7.67;;;;;;;3.71;70.00;97956.19;4935634;29;20189;-61
2021/04/13 07:20:05;;;;;;;12.70;8.63;;;;;;;3.56;70.72;97955.97;4935754;29;20237;-61
2021/04/13 07:22:38;;;;;;;11.83;8.50;;;;;;;3.59;71.66;97955.63;4936815;29;20186;-61
2021/04/13 07:25:21;;;;;;;11.37;9.23;;;;;;;3.47;72.30;97962.03;4936690;29;20178;-61
2021/04/13 07:28:00;;;;;;;10.67;8.97;;;;;;;3.64;71.40;97960.34;4935965;29;20221;-62
2021/04/13 07:30:29;;;;;;;12.60;9.07;;;;;;;3.69;71.40;97968.47;4923737;29;20171;-61
2021/04/13 07:32:57;;;;;;;9.90;8.40;;;;;;;3.68;70.16;97967.66;4935530;29;20443;-61
2021/04/13 07:35:26;;;;;;;11.83;8.77;;;;;;;4.09;69.68;97966.06;4936420;29;20200;-63
2021/04/13 07:37:54;;;;;;;12.50;9.33;;;;;;;4.35;68.92;97963.38;4934461;29;20213;-62
2021/04/13 07:40:27;;;;;;;10.37;8.73;;;;;;;4.22;68.16;97964.81;4936308;29;20216;-65
2021/04/13 07:42:55;;;;;;;15.43;9.50;;;;;;;4.35;68.17;97970.38;4935390;29;20710;-62
2021/04/13 07:45:24;;;;;;;11.33;8.57;;;;;;;3.85;68.88;97958.19;4936019;29;20178;-61
2021/04/13 07:48:27;;;;;;;10.67;9.13;;;;;;;4.54;67.55;97964.91;4935241;29;20192;-62
2021/04/13 07:51:20;;;;;;;10.40;9.40;;;;;;;4.60;66.37;97965.09;4935145;29;20197;-62
2021/04/13 07:54:00;;;;;;;11.10;9.60;;;;;;;4.55;67.09;97962.16;4950783;29;20248;-62
2021/04/13 07:56:31;;;;;;;12.17;9.00;;;;;;;4.67;66.35;97961.84;4955426;28;20293;-61
2021/04/13 07:59:19;;;;;;;9.10;8.20;;;;;;;5.05;64.44;97960.41;4953814;28;20200;-61
2021/04/13 08:01:46;;;;;;;10.83;8.63;;;;;;;4.37;66.30;97969.25;4953186;28;20184;-64
2021/04/13 08:04:19;;;;;;;9.57;8.50;;;;;;;4.79;65.56;97969.16;4952780;29;20182;-64
2021/04/13 08:07:00;;;;;;;8.70;7.83;;;;;;;4.92;64.25;97966.91;4953498;28;20190;-62
2021/04/13 08:09:47;;;;;;;10.03;8.57;;;;;;;5.00;62.93;97963.50;4953116;29;20205;-61
2021/04/13 08:12:21;;;;;;;8.53;7.63;;;;;;;5.26;62.99;97971.13;4952541;29;20182;-61
2021/04/13 08:14:56;;;;;;;8.80;7.90;;;;;;;5.59;62.07;97964.09;4953383;28;20575;-61
2021/04/13 08:17:27;;;;;;;8.80;7.73;;;;;;;5.35;62.29;97970.94;4954378;29;20189;-62
2021/04/13 08:20:11;;;;;;;8.30;7.27;;;;;;;5.04;62.88;97964.78;4951624;29;20272;-63
2021/04/13 08:22:56;;;;;;;10.77;9.03;;;;;;;4.70;65.60;97980.50;4953563;28;20660;-65
2021/04/13 08:25:42;;;;;;;16.70;8.77;;;;;;;4.22;67.79;97973.44;4952654;29;20840;-61
2021/04/13 08:28:28;;;;;;;9.20;8.03;;;;;;;4.69;67.13;97975.47;4946630;29;20185;-63
2021/04/13 08:34:43;;;;;;;12.27;9.20;;;;;;;4.22;68.02;97972.63;4954746;29;20193;-61
2021/04/13 08:37:22;;;;;;;12.43;9.67;;;;;;;4.03;70.19;97965.88;4954747;28;20219;-61
2021/04/13 08:40:13;;;;;;;12.73;10.07;;;;;;;3.91;70.55;97973.13;4952783;29;20205;-62
2021/04/13 08:42:52;;;;;;;9.67;8.67;;;;;;;4.05;70.36;97980.34;4952964;29;20240;-65
2021/04/13 08:45:52;;;;;;;11.20;9.57;;;;;;;4.18;68.85;97979.88;4954060;28;20685;-62
2021/04/13 08:48:24;;;;;;;10.43;8.57;;;;;;;4.46;68.40;97973.47;4946797;29;20722;-61
2021/04/13 08:51:09;;;;;;;12.47;9.87;;;;;;;4.58;67.21;97969.63;4953347;28;20201;-62
2021/04/13 08:53:47;;;;;;;9.77;8.77;;;;;;;5.11;65.91;97978.78;4963046;28;20311;-64
2021/04/13 08:56:24;;;;;;;10.00;8.87;;;;;;;5.64;63.03;97980.00;4956484;28;20185;-61
2021/04/13 08:58:53;;;;;;;9.40;8.50;;;;;;;5.83;62.35;97975.25;4972389;28;20279;-62
2021/04/13 09:01:26;;;;;;;8.70;7.87;;;;;;;5.91;61.16;97984.06;4964342;28;20697;-62
2021/04/13 09:03:52;;;;;;;7.90;7.20;;;;;;;5.73;60.14;97974.63;4970864;28;20665;-62
2021/04/13 09:06:56;;;;;;;9.20;7.50;;;;;;;6.09;58.01;97971.59;4955685;28;20172;-62
2021/04/13 09:09:42;;;;;;;9.00;8.10;;;;;;;5.67;59.88;97971.88;4973018;28;20200;-63
2021/04/13 09:12:16;;;;;;;8.47;7.57;;;;;;;5.77;57.43;97977.69;4973377;28;20205;-62
2021/04/13 09:15:00;;;;;;;9.60;8.67;;;;;;;5.98;58.95;97977.97;4972125;28;20188;-63
2021/04/13 09:17:25;;;;;;;8.57;7.67;;;;;;;6.12;58.28;97979.09;4945328;28;20184;-63
2021/04/13 09:20:00;;;;;;;7.77;6.90;;;;;;;5.51;57.05;97980.53;4972148;28;20656;-62
2021/04/13 09:22:33;;;;;;;7.60;6.90;;;;;;;4.96;58.48;97982.97;4972476;28;20551;-62
2021/04/13 09:25:10;;;;;;;8.03;7.23;;;;;;;4.94;58.78;97979.72;4955456;28;20181;-61
2021/04/13 09:27:45;;;;;;;7.50;6.70;;;;;;;4.41;57.74;97983.53;4972382;28;20176;-64
2021/04/13 09:30:22;;;;;;;7.67;6.50;;;;;;;4.77;56.51;97978.91;4972910;28;20235;-62
2021/04/13 09:32:49;;;;;;;7.10;6.43;;;;;;;4.74;55.63;97981.81;4954756;28;20184;-62
2021/04/13 09:35:37;;;;;;;6.90;6.30;;;;;;;5.05;54.16;97976.81;4973182;28;20261;-62
2021/04/13 09:38:40;;;;;;;7.03;6.43;;;;;;;4.85;53.50;97968.50;4972192;28;20227;-62
2021/04/13 09:41:30;;;;;;;8.13;7.40;;;;;;;5.02;54.12;97969.34;4955435;28;21677;-62
2021/04/13 09:44:02;;;;;;;7.80;7.00;;;;;;;5.29;52.70;97968.22;4971576;28;20471;-62
2021/04/13 09:46:50;;;;;;;7.40;6.70;;;;;;;5.24;52.47;97965.28;4955138;28;20181;-62
2021/04/13 09:49:33;;;;;;;7.53;6.83;;;;;;;5.11;52.36;97970.97;4958512;28;20216;-62
2021/04/13 09:52:26;;;;;;;7.70;7.10;;;;;;;5.19;52.82;97965.75;4971487;28;20181;-62
2021/04/13 09:55:20;;;;;;;8.10;7.40;;;;;;;5.34;53.68;97974.53;4971757;28;20193;-62
2021/04/13 09:58:29;;;;;;;7.17;6.57;;;;;;;5.75;53.29;97964.03;4972444;28;20223;-63
2021/04/13 10:01:26;;;;;;;7.20;6.13;;;;;;;5.37;48.95;97969.00;4950982;28;20656;-63
2021/04/13 10:04:04;;;;;;;7.37;6.67;;;;;;;5.67;50.19;97961.47;4954614;28;20184;-62
2021/04/13 10:06:45;;;;;;;7.97;7.23;;;;;;;5.81;50.24;97965.97;4972402;28;20178;-62
2021/04/13 10:09:20;;;;;;;8.70;7.70;;;;;;;5.85;50.92;97969.88;4972867;28;20211;-63
2021/04/13 10:12:21;;;;;;;8.67;7.57;;;;;;;6.16;50.62;97960.34;4954283;28;20180;-62
2021/04/13 10:15:05;;;;;;;7.67;6.97;;;;;;;6.14;47.85;97957.09;4944243;28;20172;-63
2021/04/13 10:18:14;;;;;;;7.10;6.50;;;;;;;5.72;49.84;97959.19;4972562;28;20195;-62
2021/04/13 10:20:51;;;;;;;7.40;6.80;;;;;;;6.10;49.78;97965.41;4950229;28;20267;-65
2021/04/13 10:23:54;;;;;;;7.70;7.00;;;;;;;5.93;49.75;97958.66;4972290;28;20215;-62
2021/04/13 10:26:45;;;;;;;7.97;7.27;;;;;;;6.39;49.63;97954.38;4972585;28;20697;-62
2021/04/13 10:29:16;;;;;;;8.40;7.70;;;;;;;6.35;48.84;97956.53;4948496;28;20216;-64
2021/04/13 10:32:19;;;;;;;8.03;7.30;;;;;;;6.60;49.46;97949.38;4953889;28;20181;-62
2021/04/13 10:35:20;;;;;;;8.17;7.47;;;;;;;6.71;48.74;97948.97;4970717;28;20187;-65
2021/04/13 10:38:27;;;;;;;8.07;7.33;;;;;;;6.44;49.65;97949.47;4971340;28;20638;-62
2021/04/13 10:41:05;;;;;;;8.47;7.67;;;;;;;5.89;51.74;97952.97;4953804;28;20214;-62
2021/04/13 10:44:08;;;;;;;7.93;7.13;;;;;;;6.07;52.63;97953.56;4954094;28;20716;-63
2021/04/13 10:47:01;;;;;;;8.20;7.40;;;;;;;6.03;51.01;97957.47;4954900;28;20192;-62
2021/04/13 10:50:18;;;;;;;8.13;7.23;;;;;;;6.18;49.14;97955.00;4959853;28;20218;-62
2021/04/13 10:53:21;;;;;;;7.27;6.67;;;;;;;5.55;48.81;97942.81;4945845;28;20634;-62
2021/04/13 10:55:59;;;;;;;7.43;6.73;;;;;;;5.68;49.98;97943.13;4944680;28;20641;-62
2021/04/13 10:58:44;;;;;;;7.20;6.57;;;;;;;5.84;50.86;97939.63;4954433;28;20185;-62
2021/04/13 11:01:47;;;;;;;6.83;6.33;;;;;;;6.18;48.31;97921.16;4953466;28;20192;-63
2021/04/13 11:04:37;;;;;;;7.00;6.30;;;;;;;6.73;48.29;97923.56;4972158;28;20192;-63
2021/04/13 11:07:54;;;;;;;7.37;6.47;;;;;;;6.63;47.23;97920.38;4971390;28;20192;-62
2021/04/13 11:10:38;;;;;;;7.50;6.90;;;;;;;5.73;48.51;97927.00;4955033;28;20224;-66
2021/04/13 11:13:16;;;;;;;7.10;6.50;;;;;;;5.69;46.28;97933.50;4971991;28;20191;-63
2021/04/13 11:16:09;;;;;;;6.27;5.70;;;;;;;5.63;47.46;97927.16;4971121;28;20189;-62
2021/04/13 11:19:18;;;;;;;8.93;6.83;;;;;;;6.10;47.26;97918.56;4972188;28;20204;-62
2021/04/13 11:22:10;;;;;;;11.97;6.70;;;;;;;6.41;46.78;97921.97;4961212;28;20177;-62
2021/04/13 11:24:42;;;;;;;6.87;6.20;;;;;;;6.72;46.23;97910.72;4971928;28;20188;-66
2021/04/13 11:27:13;;;;;;;7.00;6.30;;;;;;;6.86;44.95;97918.56;4971733;28;20173;-61
2021/04/13 11:29:47;;;;;;;6.57;6.00;;;;;;;7.03;44.05;97914.84;4953635;28;20263;-64
2021/04/13 11:33:00;;;;;;;7.17;6.47;;;;;;;7.11;42.53;97911.38;4971275;28;20183;-63
2021/04/13 11:35:36;;;;;;;6.60;6.00;;;;;;;6.83;44.80;97908.50;4953787;28;20231;-62
2021/04/13 11:38:04;;;;;;;6.10;5.60;;;;;;;6.41;42.85;97915.97;4970584;28;20185;-62
2021/04/13 11:40:39;;;;;;;6.57;5.97;;;;;;;5.81;44.27;97921.75;4954193;28;20176;-61
2021/04/13 11:43:13;;;;;;;6.73;6.23;;;;;;;5.82;44.35;97912.97;4971228;28;20611;-62
2021/04/13 11:46:06;;;;;;;6.47;5.87;;;;;;;5.89;44.68;97911.34;4972691;28;20173;-65
2021/04/13 11:48:43;;;;;;;6.07;5.50;;;;;;;5.91;43.51;97904.19;4946028;28;20292;-61
2021/04/13 11:51:50;;;;;;;6.80;6.30;;;;;;;6.62;43.35;97884.91;4975109;28;20193;-62
2021/04/13 11:54:44;;;;;;;7.17;6.57;;;;;;;7.21;43.38;97888.44;4972187;28;20221;-61
2021/04/13 11:57:27;;;;;;;7.07;6.47;;;;;;;6.71;43.92;97896.06;4951699;28;20650;-63
2021/04/13 12:00:18;;;;;;;7.27;6.67;;;;;;;6.52;44.02;97881.72;4974014;28;20188;-61
2021/04/13 12:02:45;;;;;;;8.23;6.13;;;;;;;6.79;42.23;97896.00;4973830;28;20545;-63
2021/04/13 12:05:27;;;;;;;7.13;6.47;;;;;;;6.57;43.03;97890.63;4974815;28;20189;-61
2021/04/13 12:07:53;;;;;;;6.93;6.23;;;;;;;6.63;42.92;97889.13;4973795;28;20216;-60
2021/04/13 12:10:31;;;;;;;7.07;6.47;;;;;;;6.56;43.37;97880.38;4957336;28;20256;-61
2021/04/13 12:13:05;;;;;;;8.27;6.83;;;;;;;6.68;44.89;97889.41;4973725;28;20196;-61
2021/04/13 12:15:30;;;;;;;7.40;6.70;;;;;;;7.03;44.95;97887.97;4962126;28;20660;-60
2021/04/13 12:17:57;;;;;;;6.97;6.27;;;;;;;6.46;44.91;97900.66;4973618;28;20220;-62
2021/04/13 12:20:33;;;;;;;7.30;6.60;;;;;;;6.17;46.09;97896.91;4974147;28;20187;-60
2021/04/13 12:23:04;;;;;;;6.97;6.37;;;;;;;5.95;46.61;97900.28;4973557;28;20500;-61
2021/04/13 12:25:51;;;;;;;8.27;6.47;;;;;;;6.04;45.69;97890.63;4974218;28;20185;-61
2021/04/13 12:28:38;;;;;;;6.73;6.23;;;;;;;5.99;45.10;97898.94;4951164;28;20192;-61